Time;durP1;ratioP1;P1;durP2;ratioP2;P2;SDS_P1;SDS_P2;PMS_P1;PMS_P2;Temp;Humidity;BMP_temperature;BMP_pressure;BME280_temperature;BME280_humidity;BME280_pressure;Samples;Min_cycle;Max_cycle;Signal;HPM_P1;HPM_P2
2023/05/06 00:00:06;;;;;;;;;;;;;;;27.53;41.59;94361.22;5039924;28;9541;-64
2023/05/06 00:02:51;;;;;;;;;;;;;;;27.53;41.67;94350.16;5037917;28;7107;-63
2023/05/06 00:05:30;;;;;;;;;;;;;;;27.49;41.57;94339.41;5053494;28;7264;-63
2023/05/06 00:08:04;;;;;;;;;;;;;;;27.50;41.62;94335.38;5058704;28;9036;-64
2023/05/06 00:10:36;;;;;;;;;;;;;;;27.51;41.94;94342.38;5023362;28;7271;-63
2023/05/06 00:13:07;;;;;;;;;;;;;;;27.49;41.55;94355.97;5037368;28;7041;-64
2023/05/06 00:15:46;;;;;;;;;;;;;;;27.49;41.58;94353.22;5040173;28;9129;-63
2023/05/06 00:19:06;;;;;;;;;;;;;;;27.49;41.56;94344.19;5058521;28;8860;-63
2023/05/06 00:21:49;;;;;;;;;;;;;;;27.48;41.51;94340.69;4996135;28;9042;-63
2023/05/06 00:25:02;;;;;;;;;;;;;;;27.48;41.67;94326.88;4995163;28;7615;-63
2023/05/06 00:27:54;;;;;;;;;;;;;;;27.47;41.73;94319.13;5002965;28;7131;-64
2023/05/06 00:30:47;;;;;;;;;;;;;;;27.45;41.66;94308.56;4981238;28;7511;-64
2023/05/06 00:33:31;;;;;;;;;;;;;;;27.44;41.84;94292.53;4995202;28;9050;-64
2023/05/06 00:36:09;;;;;;;;;;;;;;;27.43;41.80;94299.31;4991077;28;9471;-63
2023/05/06 00:38:51;;;;;;;;;;;;;;;27.44;41.58;94292.53;4993774;28;7654;-64
2023/05/06 00:41:34;;;;;;;;;;;;;;;27.42;41.55;94287.53;4987862;28;8348;-63
2023/05/06 00:44:11;;;;;;;;;;;;;;;27.44;41.56;94281.50;4978106;28;8701;-64
2023/05/06 00:46:47;;;;;;;;;;;;;;;27.42;41.44;94289.56;4995080;28;9072;-64
2023/05/06 00:49:23;;;;;;;;;;;;;;;27.43;41.39;94291.03;4978535;28;9094;-64
2023/05/06 00:51:51;;;;;;;;;;;;;;;27.43;41.45;94291.78;4988981;28;7272;-63
2023/05/06 00:54:48;;;;;;;;;;;;;;;27.42;41.52;94306.88;4988290;28;9066;-64
2023/05/06 00:57:17;;;;;;;;;;;;;;;27.41;41.07;94310.91;4976731;28;7354;-63
2023/05/06 01:00:01;;;;;;;;;;;;;;;27.41;41.49;94310.91;4979055;28;7046;-64
2023/05/06 01:02:27;;;;;;;;;;;;;;;27.40;41.62;94298.38;4997708;28;7294;-63
2023/05/06 01:04:54;;;;;;;;;;;;;;;27.40;41.89;94298.38;4991269;28;8176;-63
2023/05/06 01:07:27;;;;;;;;;;;;;;;27.42;41.59;94306.88;4999706;28;7285;-63
2023/05/06 01:10:17;;;;;;;;;;;;;;;27.42;41.93;94311.66;5007539;28;9204;-64
2023/05/06 01:12:56;;;;;;;;;;;;;;;27.41;41.60;94307.38;5010966;28;7023;-64
2023/05/06 01:16:12;;;;;;;;;;;;;;;27.40;41.54;94300.38;4995605;28;9499;-63
2023/05/06 01:18:50;;;;;;;;;;;;;;;27.41;41.38;94299.84;4982353;28;8992;-63
2023/05/06 01:21:17;;;;;;;;;;;;;;;27.40;41.48;94297.63;4990542;28;9006;-63
2023/05/06 01:23:56;;;;;;;;;;;;;;;27.38;41.62;94306.41;4976329;28;7288;-63
2023/05/06 01:26:26;;;;;;;;;;;;;;;27.36;41.70;94303.44;4963390;28;7450;-63
2023/05/06 01:28:55;;;;;;;;;;;;;;;27.36;41.58;94303.44;4973706;28;7049;-63
2023/05/06 01:31:39;;;;;;;;;;;;;;;27.38;41.69;94311.22;4984037;28;7437;-63
2023/05/06 01:34:57;;;;;;;;;;;;;;;27.37;41.64;94304.94;4973024;28;9322;-63
2023/05/06 01:37:36;;;;;;;;;;;;;;;27.36;41.80;94314.47;4979940;28;7026;-63
2023/05/06 01:40:06;;;;;;;;;;;;;;;27.34;41.42;94305.94;4969258;28;8845;-63
2023/05/06 01:42:35;;;;;;;;;;;;;;;27.35;41.57;94309.47;4971470;28;7308;-64
2023/05/06 01:45:05;;;;;;;;;;;;;;;27.35;41.72;94304.72;4964876;28;8692;-63
2023/05/06 01:47:34;;;;;;;;;;;;;;;27.33;41.64;94306.47;4969426;28;9094;-63
2023/05/06 01:50:03;;;;;;;;;;;;;;;27.32;41.73;94302.22;4971586;28;7521;-64
2023/05/06 01:52:29;;;;;;;;;;;;;;;27.33;41.86;94314.75;4953215;28;7774;-64
2023/05/06 01:55:00;;;;;;;;;;;;;;;27.33;41.58;94312.75;4997540;28;7280;-63
2023/05/06 01:57:27;;;;;;;;;;;;;;;27.33;41.86;94306.47;5015580;28;9160;-63
2023/05/06 01:59:53;;;;;;;;;;;;;;;27.33;41.56;94301.72;5030607;28;7090;-64
2023/05/06 02:02:19;;;;;;;;;;;;;;;27.28;41.20;94288.72;5018140;28;8916;-63
2023/05/06 02:04:45;;;;;;;;;;;;;;;27.33;42.08;94298.19;5039957;28;9012;-64
2023/05/06 02:07:11;;;;;;;;;;;;;;;27.32;41.80;94297.44;5031494;28;9418;-63
2023/05/06 02:09:37;;;;;;;;;;;;;;;27.31;41.48;94293.19;5031693;28;9463;-63
2023/05/06 02:12:03;;;;;;;;;;;;;;;27.28;41.64;94302.53;5031679;28;7443;-63
2023/05/06 02:14:32;;;;;;;;;;;;;;;27.32;41.58;94307.75;5036870;28;7425;-63
2023/05/06 02:17:02;;;;;;;;;;;;;;;27.30;41.44;94302.75;5018536;28;9151;-63
2023/05/06 02:19:28;;;;;;;;;;;;;;;27.30;41.76;94304.75;5013092;28;7267;-63
2023/05/06 02:21:54;;;;;;;;;;;;;;;27.27;41.67;94297.53;5019239;28;7260;-63
2023/05/06 02:24:25;;;;;;;;;;;;;;;27.25;41.60;94295.28;5026500;28;8788;-63
2023/05/06 02:26:51;;;;;;;;;;;;;;;27.29;41.60;94298.50;5026933;28;8863;-63
2023/05/06 02:29:17;;;;;;;;;;;;;;;27.32;41.35;94297.44;5030711;28;8709;-63
2023/05/06 02:31:45;;;;;;;;;;;;;;;27.30;41.61;94294.47;5020053;28;9111;-63
2023/05/06 02:34:13;;;;;;;;;;;;;;;27.34;41.63;94294.19;5024031;28;7084;-64
2023/05/06 02:36:39;;;;;;;;;;;;;;;27.35;41.74;94295.66;5012745;28;7019;-64
2023/05/06 02:39:09;;;;;;;;;;;;;;;27.36;41.48;94291.66;5036268;28;7222;-63
2023/05/06 02:41:38;;;;;;;;;;;;;;;27.35;41.86;94284.59;5030483;28;8952;-64
2023/05/06 02:44:05;;;;;;;;;;;;;;;27.35;41.34;94282.63;5041287;28;7298;-63
2023/05/06 02:46:34;;;;;;;;;;;;;;;27.35;41.58;94277.09;5020745;28;6983;-64
2023/05/06 02:49:02;;;;;;;;;;;;;;;27.36;41.80;94286.13;5033715;28;7132;-63
2023/05/06 02:51:28;;;;;;;;;;;;;;;27.33;41.76;94279.63;5027576;28;7457;-63
2023/05/06 02:53:54;;;;;;;;;;;;;;;27.36;41.49;94275.09;5030435;28;7259;-63
2023/05/06 02:56:23;;;;;;;;;;;;;;;27.36;41.49;94283.38;5014359;28;7316;-63
2023/05/06 02:58:48;;;;;;;;;;;;;;;27.35;41.38;94284.59;5038043;28;9548;-64
2023/05/06 03:01:14;;;;;;;;;;;;;;;27.35;41.43;94282.63;5026905;28;9225;-63
2023/05/06 03:03:41;;;;;;;;;;;;;;;27.36;41.32;94280.63;5037273;28;9572;-63
2023/05/06 03:06:14;;;;;;;;;;;;;;;27.33;41.38;94281.63;5037889;28;9308;-63
2023/05/06 03:08:44;;;;;;;;;;;;;;;27.31;41.56;94264.84;5024079;28;7122;-63
2023/05/06 03:11:13;;;;;;;;;;;;;;;27.34;41.71;94266.56;5029810;28;7302;-63
2023/05/06 03:13:45;;;;;;;;;;;;;;;27.34;41.25;94272.81;5042885;28;9138;-63
2023/05/06 03:16:14;;;;;;;;;;;;;;;27.34;41.50;94272.81;5035314;28;7038;-64
2023/05/06 03:18:43;;;;;;;;;;;;;;;27.33;40.65;94276.84;5013539;28;9361;-63
2023/05/06 03:21:17;;;;;;;;;;;;;;;27.31;41.28;94273.88;5041982;28;7220;-64
2023/05/06 03:23:44;;;;;;;;;;;;;;;27.31;41.79;94268.34;5033538;28;7027;-63
2023/05/06 03:26:18;;;;;;;;;;;;;;;27.29;41.38;94268.13;5033043;28;7179;-64
2023/05/06 03:28:44;;;;;;;;;;;;;;;27.31;41.52;94267.59;5030241;28;9010;-63
2023/05/06 03:31:12;;;;;;;;;;;;;;;27.32;41.49;94267.06;5022955;28;7092;-63
2023/05/06 03:33:51;;;;;;;;;;;;;;;27.31;41.30;94271.09;5033416;28;7335;-64
2023/05/06 03:36:30;;;;;;;;;;;;;;;27.29;41.35;94270.88;5044978;28;9260;-64
2023/05/06 03:38:58;;;;;;;;;;;;;;;27.30;41.62;94277.13;5025489;28;7022;-64
2023/05/06 03:41:37;;;;;;;;;;;;;;;27.26;41.21;94273.94;5022342;28;9081;-63
2023/05/06 03:44:23;;;;;;;;;;;;;;;27.29;41.39;94273.66;5035207;28;9570;-63
2023/05/06 03:47:00;;;;;;;;;;;;;;;27.28;41.71;94263.88;5041034;28;9018;-64
2023/05/06 03:49:28;;;;;;;;;;;;;;;27.27;41.40;94259.63;5032963;28;6994;-63
2023/05/06 03:51:57;;;;;;;;;;;;;;;27.27;41.53;94270.66;5027535;28;9559;-63
2023/05/06 03:54:23;;;;;;;;;;;;;;;27.26;41.41;94274.69;5032906;28;7214;-63
2023/05/06 03:56:51;;;;;;;;;;;;;;;27.26;41.57;94277.44;5038963;28;7431;-63
2023/05/06 03:59:17;;;;;;;;;;;;;;;27.26;41.56;94276.69;5018901;28;8934;-63
2023/05/06 04:01:43;;;;;;;;;;;;;;;27.27;40.74;94280.97;5032007;28;7468;-64
2023/05/06 04:04:20;;;;;;;;;;;;;;;27.26;41.29;94271.94;5023860;28;7023;-56
2023/05/06 04:07:12;;;;;;;;;;;;;;;27.25;41.48;94273.19;5029819;28;7258;-56
2023/05/06 04:10:25;;;;;;;;;;;;;;;27.25;41.50;94267.66;4992207;28;6990;-56
2023/05/06 04:12:51;;;;;;;;;;;;;;;27.25;41.52;94287.00;4939083;28;7668;-56
2023/05/06 04:15:18;;;;;;;;;;;;;;;27.23;41.50;94317.16;4946803;28;9383;-56
2023/05/06 04:18:00;;;;;;;;;;;;;;;27.23;41.54;94324.72;4946383;28;7582;-56
2023/05/06 04:20:36;;;;;;;;;;;;;;;27.22;41.31;94307.38;4938473;28;7048;-56
2023/05/06 04:23:03;;;;;;;;;;;;;;;27.22;41.38;94284.53;4935514;28;7043;-55
2023/05/06 04:25:41;;;;;;;;;;;;;;;27.21;41.40;94269.25;4930655;29;7258;-56
2023/05/06 04:28:11;;;;;;;;;;;;;;;27.20;41.24;94240.91;4922727;28;9089;-56
2023/05/06 04:30:44;;;;;;;;;;;;;;;27.19;41.54;94247.69;4944370;28;7353;-56
2023/05/06 04:33:21;;;;;;;;;;;;;;;27.19;41.56;94255.22;4939135;28;8791;-56
2023/05/06 04:35:59;;;;;;;;;;;;;;;27.19;41.44;94261.47;4954278;28;7331;-56
2023/05/06 04:38:47;;;;;;;;;;;;;;;27.20;41.60;94276.78;4926796;28;7031;-56
2023/05/06 04:41:14;;;;;;;;;;;;;;;27.19;41.38;94280.81;4927413;29;7303;-56
2023/05/06 04:44:10;;;;;;;;;;;;;;;27.20;41.40;94279.56;4929456;28;7066;-56
2023/05/06 04:46:52;;;;;;;;;;;;;;;27.21;41.36;94280.31;4899715;29;7290;-56
2023/05/06 04:49:21;;;;;;;;;;;;;;;27.20;41.54;94276.03;4943318;28;7058;-56
2023/05/06 04:52:03;;;;;;;;;;;;;;;27.20;41.57;94276.03;4988867;28;7494;-56
2023/05/06 04:54:50;;;;;;;;;;;;;;;27.21;41.39;94280.31;4983366;28;7203;-55
2023/05/06 04:57:15;;;;;;;;;;;;;;;27.20;41.54;94279.56;4990604;28;8556;-56
2023/05/06 05:00:00;;;;;;;;;;;;;;;27.20;41.56;94287.84;4959536;28;9046;-56
2023/05/06 05:03:00;;;;;;;;;;;;;;;27.20;42.02;94290.59;4991654;28;7121;-56
2023/05/06 05:05:48;;;;;;;;;;;;;;;27.21;41.54;94297.59;4935181;29;7255;-56
2023/05/06 05:08:23;;;;;;;;;;;;;;;27.21;41.56;94296.88;4938160;28;8430;-56
2023/05/06 05:11:10;;;;;;;;;;;;;;;27.19;41.49;94302.91;4918906;29;7246;-56
2023/05/06 05:13:45;;;;;;;;;;;;;;;27.21;41.33;94303.13;4919244;28;7133;-56
2023/05/06 05:16:32;;;;;;;;;;;;;;;27.22;41.13;94304.63;4922363;28;9153;-56
2023/05/06 05:19:16;;;;;;;;;;;;;;;27.20;41.60;94289.84;4914881;29;7294;-55
2023/05/06 05:21:44;;;;;;;;;;;;;;;27.20;41.74;94298.88;4935648;29;9022;-56
2023/05/06 05:24:21;;;;;;;;;;;;;;;27.20;41.18;94298.88;4971935;28;7132;-56
2023/05/06 05:26:57;;;;;;;;;;;;;;;27.19;41.74;94302.91;4990046;28;7066;-56
2023/05/06 05:29:23;;;;;;;;;;;;;;;27.20;41.63;94296.13;4980134;28;7047;-55
2023/05/06 05:32:15;;;;;;;;;;;;;;;27.19;41.52;94299.38;4979268;28;7107;-56
2023/05/06 05:34:59;;;;;;;;;;;;;;;27.18;42.37;94298.66;4975792;28;7118;-55
2023/05/06 05:37:26;;;;;;;;;;;;;;;27.17;41.92;94302.69;4971613;28;9047;-56
2023/05/06 05:40:22;;;;;;;;;;;;;;;27.19;41.65;94300.13;4974961;28;7056;-56
2023/05/06 05:42:48;;;;;;;;;;;;;;;27.18;41.60;94298.66;5017173;28;7049;-55
2023/05/06 05:45:15;;;;;;;;;;;;;;;27.19;41.75;94302.16;5016928;28;7257;-56
2023/05/06 05:47:44;;;;;;;;;;;;;;;27.17;41.70;94308.19;5037904;28;9782;-56
2023/05/06 05:50:29;;;;;;;;;;;;;;;27.16;41.48;94308.72;5026917;28;8742;-56
2023/05/06 05:52:55;;;;;;;;;;;;;;;27.16;41.85;94306.72;5040587;28;7264;-56
2023/05/06 05:55:51;;;;;;;;;;;;;;;27.18;41.67;94312.47;5028378;28;8965;-56
2023/05/06 05:58:31;;;;;;;;;;;;;;;27.17;41.83;94313.72;4973914;28;7301;-56
2023/05/06 06:01:05;;;;;;;;;;;;;;;27.17;41.60;94316.50;4985841;28;7346;-55
2023/05/06 06:03:48;;;;;;;;;;;;;;;27.18;41.51;94308.97;4975304;28;8955;-56
2023/05/06 06:06:18;;;;;;;;;;;;;;;27.19;41.79;94299.38;4970474;28;9376;-55
2023/05/06 06:09:03;;;;;;;;;;;;;;;27.18;41.29;94282.09;4986784;28;9708;-55
2023/05/06 06:11:29;;;;;;;;;;;;;;;27.18;41.59;94275.81;4978298;28;9135;-56
2023/05/06 06:14:13;;;;;;;;;;;;;;;27.19;41.15;94288.34;4973580;28;7016;-56
2023/05/06 06:17:05;;;;;;;;;;;;;;;27.20;41.24;94290.59;4987324;28;7050;-56
2023/05/06 06:19:31;;;;;;;;;;;;;;;27.18;41.27;94293.16;4975478;28;7214;-55
2023/05/06 06:22:01;;;;;;;;;;;;;;;27.19;41.06;94302.91;4984060;28;9220;-56
2023/05/06 06:24:33;;;;;;;;;;;;;;;27.17;41.31;94302.69;4960366;28;7049;-55
2023/05/06 06:27:13;;;;;;;;;;;;;;;27.17;41.73;94308.19;4967394;28;9221;-55
2023/05/06 06:29:39;;;;;;;;;;;;;;;27.15;41.35;94305.22;4971033;28;7275;-56
2023/05/06 06:32:58;;;;;;;;;;;;;;;27.16;41.54;94294.94;4984706;28;7427;-55
2023/05/06 06:35:34;;;;;;;;;;;;;;;27.13;41.69;94282.16;4978450;28;6982;-55
2023/05/06 06:38:11;;;;;;;;;;;;;;;27.16;41.62;94284.63;4982275;28;8730;-56
2023/05/06 06:40:57;;;;;;;;;;;;;;;27.18;41.43;94298.66;4987453;28;7099;-55
2023/05/06 06:43:24;;;;;;;;;;;;;;;27.18;41.54;94295.91;4992189;28;8242;-55
2023/05/06 06:46:24;;;;;;;;;;;;;;;27.18;41.06;94293.16;5005494;28;9097;-55
2023/05/06 06:49:09;;;;;;;;;;;;;;;27.18;41.31;94303.44;4951723;28;7355;-55
2023/05/06 06:51:52;;;;;;;;;;;;;;;27.19;41.60;94296.63;4935429;28;9037;-56
2023/05/06 06:54:19;;;;;;;;;;;;;;;27.20;41.94;94296.13;4947356;28;7241;-55
2023/05/06 06:57:16;;;;;;;;;;;;;;;27.20;41.71;94293.34;4955772;28;7336;-56
2023/05/06 07:00:04;;;;;;;;;;;;;;;27.22;41.60;94298.34;4940325;28;8710;-55
2023/05/06 07:02:41;;;;;;;;;;;;;;;27.22;41.35;94295.59;4934009;29;9427;-55
2023/05/06 07:05:18;;;;;;;;;;;;;;;27.19;41.50;94302.91;4945081;28;10127;-56
2023/05/06 07:08:15;;;;;;;;;;;;;;;27.20;41.64;94298.88;4949120;28;7274;-55
2023/05/06 07:11:36;;;;;;;;;;;;;;;27.23;41.54;94299.84;4884641;29;7028;-56
2023/05/06 07:14:02;;;;;;;;;;;;;;;27.21;41.59;94297.59;4884812;29;7019;-56
2023/05/06 07:16:38;;;;;;;;;;;;;;;27.22;41.48;94304.63;4884216;29;6888;-56
2023/05/06 07:19:04;;;;;;;;;;;;;;;27.19;41.59;94299.38;4892358;29;7254;-56
2023/05/06 07:21:33;;;;;;;;;;;;;;;27.22;41.55;94315.66;4880175;29;8365;-56
2023/05/06 07:24:00;;;;;;;;;;;;;;;27.20;41.41;94306.41;4891150;29;7238;-55
2023/05/06 07:26:27;;;;;;;;;;;;;;;27.23;41.39;94308.88;4926764;28;8656;-56
2023/05/06 07:28:55;;;;;;;;;;;;;;;27.24;41.70;94304.84;4936033;29;9077;-56
2023/05/06 07:31:37;;;;;;;;;;;;;;;27.24;41.54;94307.59;4929576;29;6867;-55
2023/05/06 07:34:14;;;;;;;;;;;;;;;27.22;41.36;94304.63;4935213;28;7086;-54
2023/05/06 07:36:44;;;;;;;;;;;;;;;27.22;41.31;94307.38;4942156;28;9070;-55
2023/05/06 07:39:13;;;;;;;;;;;;;;;27.23;41.41;94311.63;4937003;28;7258;-54
2023/05/06 07:41:41;;;;;;;;;;;;;;;27.22;41.64;94314.91;4937306;28;8977;-56
2023/05/06 07:44:07;;;;;;;;;;;;;;;27.19;41.91;94316.72;4945232;28;7265;-56
2023/05/06 07:46:33;;;;;;;;;;;;;;;27.20;42.12;94315.44;4945451;28;7557;-56
2023/05/06 07:48:59;;;;;;;;;;;;;;;27.20;41.83;94314.69;5029486;28;9212;-56
2023/05/06 07:51:27;;;;;;;;;;;;;;;27.20;41.88;94307.16;5043603;28;9043;-56
2023/05/06 07:53:57;;;;;;;;;;;;;;;27.23;42.21;94310.91;5031312;28;7284;-55
2023/05/06 07:56:33;;;;;;;;;;;;;;;27.23;41.85;94308.88;5047747;28;7119;-56
2023/05/06 07:59:04;;;;;;;;;;;;;;;27.24;41.94;94315.91;5056778;28;7324;-56
2023/05/06 08:01:30;;;;;;;;;;;;;;;27.28;41.94;94315.59;5036610;28;9192;-56
2023/05/06 08:04:03;;;;;;;;;;;;;;;27.27;42.01;94311.34;5034479;28;9838;-56
2023/05/06 08:07:04;;;;;;;;;;;;;;;27.29;41.50;94317.09;5059637;28;7277;-56
2023/05/06 08:10:23;;;;;;;;;;;;;;;27.29;41.84;94309.56;4976412;28;6944;-56
2023/05/06 08:13:09;;;;;;;;;;;;;;;27.27;41.86;94312.09;4950177;28;7950;-55
2023/05/06 08:15:51;;;;;;;;;;;;;;;27.26;41.69;94321.63;4934622;28;9062;-55
2023/05/06 08:18:34;;;;;;;;;;;;;;;27.29;41.65;94312.31;4951909;28;7342;-56
2023/05/06 08:21:08;;;;;;;;;;;;;;;27.28;41.61;94313.56;4947077;28;9357;-56
2023/05/06 08:23:34;;;;;;;;;;;;;;;27.27;41.68;94314.84;4945410;28;9185;-56
2023/05/06 08:26:31;;;;;;;;;;;;;;;27.26;41.77;94309.84;4948091;28;9134;-56
2023/05/06 08:29:32;;;;;;;;;;;;;;;27.28;41.94;94310.06;4932183;28;9046;-56
2023/05/06 08:32:34;;;;;;;;;;;;;;;27.25;41.89;94314.59;4950346;28;7296;-56
2023/05/06 08:35:17;;;;;;;;;;;;;;;27.27;41.75;94314.84;4880924;29;7297;-56
2023/05/06 08:37:43;;;;;;;;;;;;;;;27.28;41.43;94319.09;4884178;29;9162;-55
2023/05/06 08:40:28;;;;;;;;;;;;;;;27.28;41.68;94321.09;4881958;29;9137;-55
2023/05/06 08:43:13;;;;;;;;;;;;;;;27.28;42.30;94321.84;4901629;29;7275;-56
2023/05/06 08:46:10;;;;;;;;;;;;;;;27.27;41.76;94320.38;4916528;29;7196;-56
2023/05/06 08:48:41;;;;;;;;;;;;;;;27.28;41.63;94324.63;4874165;29;7119;-56
2023/05/06 08:51:23;;;;;;;;;;;;;;;27.28;41.44;94324.63;4897772;29;7287;-55
2023/05/06 08:54:01;;;;;;;;;;;;;;;27.28;41.75;94318.34;4881548;29;7150;-57
2023/05/06 08:56:52;;;;;;;;;;;;;;;27.29;41.74;94315.06;4898001;29;7258;-56
2023/05/06 08:59:23;;;;;;;;;;;;;;;27.28;41.46;94313.56;4899922;29;7117;-55
2023/05/06 09:01:51;;;;;;;;;;;;;;;27.29;41.83;94317.84;4887644;29;8142;-56
2023/05/06 09:04:27;;;;;;;;;;;;;;;27.30;41.70;94313.03;4890181;29;9128;-55
2023/05/06 09:07:26;;;;;;;;;;;;;;;27.31;41.57;94309.03;4874366;29;7090;-56
2023/05/06 09:09:52;;;;;;;;;;;;;;;27.29;41.90;94309.56;4968468;28;7983;-66
2023/05/06 09:12:40;;;;;;;;;;;;;;;27.31;41.46;94304.25;4990107;28;7017;-67
2023/05/06 09:15:41;;;;;;;;;;;;;;;27.31;41.50;94304.25;4992106;28;7208;-66
2023/05/06 09:18:10;;;;;;;;;;;;;;;27.33;41.52;94312.00;4951923;28;7310;-67
2023/05/06 09:20:45;;;;;;;;;;;;;;;27.34;41.60;94305.94;4951153;28;9213;-66
2023/05/06 09:23:28;;;;;;;;;;;;;;;27.33;41.21;94312.75;4930072;28;7439;-66
2023/05/06 09:26:33;;;;;;;;;;;;;;;27.35;41.38;94310.25;5011403;28;7249;-67
2023/05/06 09:29:05;;;;;;;;;;;;;;;27.36;41.12;94308.22;4954903;28;9157;-66
2023/05/06 09:31:31;;;;;;;;;;;;;;;27.37;41.45;94304.19;4952587;28;7301;-67
2023/05/06 09:34:03;;;;;;;;;;;;;;;27.37;41.73;94302.19;4954957;28;7064;-66
2023/05/06 09:37:07;;;;;;;;;;;;;;;27.38;41.63;94295.38;4955091;28;8634;-67
2023/05/06 09:39:45;;;;;;;;;;;;;;;27.38;41.71;94300.88;4916377;29;9083;-66
2023/05/06 09:42:32;;;;;;;;;;;;;;;27.39;41.62;94304.41;4940344;28;9373;-66
2023/05/06 09:44:59;;;;;;;;;;;;;;;27.38;41.64;94289.84;4922185;28;7114;-66
2023/05/06 09:47:41;;;;;;;;;;;;;;;27.40;41.56;94294.84;4932791;29;9177;-66
2023/05/06 09:50:25;;;;;;;;;;;;;;;27.39;41.69;94285.06;4933078;28;8015;-67
2023/05/06 09:53:21;;;;;;;;;;;;;;;27.40;41.55;94292.84;4922342;29;7260;-67
2023/05/06 09:56:05;;;;;;;;;;;;;;;27.42;41.44;94284.78;4879046;29;7036;-67
2023/05/06 09:58:33;;;;;;;;;;;;;;;27.40;41.43;94279.03;4895525;29;7030;-67
2023/05/06 10:01:09;;;;;;;;;;;;;;;27.42;41.51;94282.03;4932073;29;8231;-67
2023/05/06 10:03:35;;;;;;;;;;;;;;;27.40;41.70;94270.75;4927728;28;6989;-67
2023/05/06 10:06:10;;;;;;;;;;;;;;;27.43;41.87;94274.47;4917365;29;7400;-67
2023/05/06 10:08:39;;;;;;;;;;;;;;;27.43;41.83;94268.94;4911553;29;9071;-67
2023/05/06 10:11:07;;;;;;;;;;;;;;;27.47;41.63;94270.13;4953598;28;9391;-67
2023/05/06 10:14:03;;;;;;;;;;;;;;;27.50;41.76;94269.06;4960592;28;9017;-67
2023/05/06 10:16:53;;;;;;;;;;;;;;;27.47;41.71;94272.88;4956434;28;9066;-67
2023/05/06 10:19:58;;;;;;;;;;;;;;;27.47;41.78;94259.06;4957191;28;7581;-67
2023/05/06 10:23:00;;;;;;;;;;;;;;;27.47;41.67;94261.09;4868710;29;8776;-67
2023/05/06 10:25:44;;;;;;;;;;;;;;;27.48;41.72;94260.56;4876732;29;7303;-67
2023/05/06 10:28:40;;;;;;;;;;;;;;;27.43;41.85;94252.34;4871949;29;7702;-67
2023/05/06 10:31:12;;;;;;;;;;;;;;;27.43;41.82;94249.59;4874029;29;7147;-65
2023/05/06 10:33:53;;;;;;;;;;;;;;;27.42;41.61;94254.41;4930493;28;9083;-65
2023/05/06 10:36:32;;;;;;;;;;;;;;;27.41;41.93;94250.13;4926173;29;7115;-65
2023/05/06 10:39:12;;;;;;;;;;;;;;;27.41;41.62;94250.13;4936257;28;9059;-65
2023/05/06 10:42:32;;;;;;;;;;;;;;;27.42;41.45;94246.13;4930776;29;9085;-65
2023/05/06 10:45:07;;;;;;;;;;;;;;;27.42;41.51;94248.88;4887069;29;7238;-66
2023/05/06 10:47:54;;;;;;;;;;;;;;;27.45;41.65;94244.28;4891663;29;9080;-65
2023/05/06 10:50:25;;;;;;;;;;;;;;;27.44;41.95;94242.81;4900402;29;9073;-65
2023/05/06 10:53:01;;;;;;;;;;;;;;;27.43;41.33;94235.78;4919627;28;8624;-65
2023/05/06 10:56:20;;;;;;;;;;;;;;;27.46;42.64;94234.75;4983861;28;9102;-66
2023/05/06 10:58:54;;;;;;;;;;;;;;;27.47;41.98;94239.00;4921625;29;9096;-66
2023/05/06 11:02:05;;;;;;;;;;;;;;;27.49;41.92;94239.94;4928797;29;7046;-66
2023/05/06 11:04:33;;;;;;;;;;;;;;;27.47;42.30;94231.44;4933435;29;7060;-65
2023/05/06 11:07:14;;;;;;;;;;;;;;;27.52;41.93;94225.09;4931445;29;8694;-65
2023/05/06 11:09:59;;;;;;;;;;;;;;;27.53;41.76;94234.13;4935372;28;8274;-66
2023/05/06 11:12:44;;;;;;;;;;;;;;;27.53;41.92;94229.34;4944456;28;7038;-65
2023/05/06 11:15:35;;;;;;;;;;;;;;;27.53;41.81;94223.81;4934844;28;9147;-65
2023/05/06 11:18:28;;;;;;;;;;;;;;;27.53;42.10;94223.81;4926076;28;9472;-66
2023/05/06 11:21:07;;;;;;;;;;;;;;;27.54;41.51;94235.59;4973372;28;7048;-66
2023/05/06 11:23:49;;;;;;;;;;;;;;;27.55;41.85;94217.78;4970904;28;7258;-67
2023/05/06 11:26:27;;;;;;;;;;;;;;;27.55;42.50;94217.78;4975471;28;9176;-68
2023/05/06 11:28:54;;;;;;;;;;;;;;;27.57;42.17;94218.75;4958157;28;8493;-67
2023/05/06 11:31:21;;;;;;;;;;;;;;;27.58;42.84;94216.69;4976106;28;7268;-67
2023/05/06 11:34:07;;;;;;;;;;;;;;;27.60;42.41;94217.66;4980029;28;8205;-67
2023/05/06 11:36:45;;;;;;;;;;;;;;;27.61;42.31;94221.94;5045263;28;9195;-67
2023/05/06 11:39:13;;;;;;;;;;;;;;;27.62;42.15;94219.91;5036066;28;8996;-67
2023/05/06 11:41:45;;;;;;;;;;;;;;;27.62;41.69;94217.88;5035285;28;7037;-67
2023/05/06 11:44:34;;;;;;;;;;;;;;;27.65;41.99;94207.78;5043759;28;9003;-67
2023/05/06 11:47:04;;;;;;;;;;;;;;;27.66;41.89;94214.81;5028029;28;7351;-67
2023/05/06 11:49:42;;;;;;;;;;;;;;;27.67;41.63;94204.50;5020544;28;9077;-67
2023/05/06 11:52:10;;;;;;;;;;;;;;;27.67;41.93;94207.25;5050761;28;7299;-67
2023/05/06 11:54:41;;;;;;;;;;;;;;;27.68;41.18;94206.00;5039023;28;8970;-67
2023/05/06 11:57:26;;;;;;;;;;;;;;;27.69;41.44;94207.50;5024415;28;9067;-66
2023/05/06 12:00:08;;;;;;;;;;;;;;;27.71;41.34;94210.47;5028603;28;8754;-67
2023/05/06 12:02:40;;;;;;;;;;;;;;;27.71;41.19;94199.41;5039683;28;7326;-67
2023/05/06 12:05:08;;;;;;;;;;;;;;;27.72;41.23;94196.13;5035679;28;7269;-67
2023/05/06 12:07:59;;;;;;;;;;;;;;;27.72;41.05;94196.13;5048226;28;8959;-67
2023/05/06 12:10:51;;;;;;;;;;;;;;;27.73;40.95;94196.88;5045970;28;7278;-67
2023/05/06 12:13:51;;;;;;;;;;;;;;;27.74;40.86;94192.81;5046402;28;7282;-67
2023/05/06 12:16:50;;;;;;;;;;;;;;;27.72;40.93;94192.59;5042991;28;7302;-68
2023/05/06 12:19:27;;;;;;;;;;;;;;;27.74;41.12;94192.81;4993896;28;7056;-67
2023/05/06 12:22:39;;;;;;;;;;;;;;;27.76;40.65;94195.78;4985786;28;7537;-67
2023/05/06 12:25:55;;;;;;;;;;;;;;;27.77;40.72;94189.00;4989423;28;9116;-67
2023/05/06 12:29:02;;;;;;;;;;;;;;;27.79;40.73;94187.19;4955142;28;8284;-67
2023/05/06 12:31:37;;;;;;;;;;;;;;;27.83;40.52;94184.13;4958472;28;9036;-67
2023/05/06 12:34:35;;;;;;;;;;;;;;;27.84;40.65;94180.81;4958873;28;7307;-67
2023/05/06 12:37:04;;;;;;;;;;;;;;;27.87;40.84;94174.22;4897715;29;7297;-67
2023/05/06 12:39:38;;;;;;;;;;;;;;;27.90;40.50;94177.97;4899037;29;8710;-67
2023/05/06 12:42:07;;;;;;;;;;;;;;;27.92;40.75;94178.16;4898570;29;8942;-67
2023/05/06 12:44:38;;;;;;;;;;;;;;;27.95;40.48;94177.13;4890128;29;7040;-67
2023/05/06 12:47:35;;;;;;;;;;;;;;;27.95;40.71;94179.88;4898247;29;7290;-67
2023/05/06 12:50:49;;;;;;;;;;;;;;;27.96;40.21;94173.06;4898860;29;9094;-67
2023/05/06 12:53:42;;;;;;;;;;;;;;;27.97;40.48;94177.34;4897810;29;7023;-67
2023/05/06 12:56:29;;;;;;;;;;;;;;;27.99;40.50;94177.56;4895690;29;9369;-66
2023/05/06 12:59:09;;;;;;;;;;;;;;;27.98;40.38;94182.34;4894958;29;7831;-67
2023/05/06 13:02:04;;;;;;;;;;;;;;;27.99;40.46;94178.28;4904142;29;9394;-67
2023/05/06 13:04:39;;;;;;;;;;;;;;;27.99;40.47;94174.81;4921880;28;9084;-67
2023/05/06 13:07:36;;;;;;;;;;;;;;;27.99;41.02;94175.53;4955446;28;8982;-67
2023/05/06 13:10:21;;;;;;;;;;;;;;;28.01;40.59;94173.00;4897295;29;7227;-67
2023/05/06 13:13:01;;;;;;;;;;;;;;;28.00;40.69;94159.69;4901643;29;9137;-67
2023/05/06 13:15:43;;;;;;;;;;;;;;;28.01;40.44;94161.94;4915853;29;9109;-67
2023/05/06 13:18:42;;;;;;;;;;;;;;;28.01;40.46;94166.72;4900672;29;7174;-67
2023/05/06 13:21:18;;;;;;;;;;;;;;;28.00;40.72;94160.44;4897801;29;7294;-67
2023/05/06 13:24:06;;;;;;;;;;;;;;;28.03;40.51;94158.63;4912649;29;9072;-67
2023/05/06 13:26:33;;;;;;;;;;;;;;;28.05;40.16;94156.84;4923584;29;7268;-68
2023/05/06 13:28:59;;;;;;;;;;;;;;;28.03;40.58;94144.81;4906005;29;9155;-67
2023/05/06 13:31:27;;;;;;;;;;;;;;;28.06;40.74;94147.25;4909576;29;9239;-67
2023/05/06 13:33:56;;;;;;;;;;;;;;;28.07;40.41;94143.22;4896846;29;7373;-67
2023/05/06 13:36:23;;;;;;;;;;;;;;;28.07;40.41;94136.94;4896962;29;7203;-63
2023/05/06 13:38:52;;;;;;;;;;;;;;;28.10;40.12;94131.06;4904201;29;9461;-62
2023/05/06 13:42:04;;;;;;;;;;;;;;;28.15;40.70;94132.25;4936918;28;9142;-62
2023/05/06 13:44:41;;;;;;;;;;;;;;;28.18;40.16;94131.19;4952838;28;7081;-62
2023/05/06 13:47:18;;;;;;;;;;;;;;;28.18;40.73;94126.41;5023938;28;7045;-62
2023/05/06 13:49:47;;;;;;;;;;;;;;;28.20;39.71;94118.31;5036542;28;9339;-62
2023/05/06 13:52:31;;;;;;;;;;;;;;;28.22;40.20;94126.81;5044093;28;7266;-62
2023/05/06 13:55:16;;;;;;;;;;;;;;;28.24;40.09;94121.50;5023755;28;9033;-63
2023/05/06 13:57:58;;;;;;;;;;;;;;;28.27;40.48;94120.41;5027055;28;8012;-62